Time;durP1;ratioP1;P1;durP2;ratioP2;P2;SDS_P1;SDS_P2;PMS_P1;PMS_P2;Temp;Humidity;BMP_temperature;BMP_pressure;BME280_temperature;BME280_humidity;BME280_pressure;Samples;Min_cycle;Max_cycle;Signal;HPM_P1;HPM_P2
2020/12/31 00:02:04;;;;;;;13.75;7.55;;;;;;;;;;5013220;28;20433;-52
2020/12/31 00:04:31;;;;;;;13.98;7.70;;;;;;;;;;5008169;28;20025;-56
2020/12/31 00:06:57;;;;;;;12.25;7.63;;;;;;;;;;5026626;28;20381;-51
2020/12/31 00:09:24;;;;;;;14.60;7.80;;;;;;;;;;5020594;28;20033;-52
2020/12/31 00:11:50;;;;;;;12.43;7.55;;;;;;;;;;5023437;28;20029;-56
2020/12/31 00:14:16;;;;;;;11.55;7.78;;;;;;;;;;5027578;28;20401;-57
2020/12/31 00:16:42;;;;;;;10.95;7.53;;;;;;;;;;5026449;28;20033;-54
2020/12/31 00:19:08;;;;;;;15.38;8.20;;;;;;;;;;5026888;28;20041;-53
2020/12/31 00:21:34;;;;;;;14.43;7.45;;;;;;;;;;5018090;28;20025;-57
2020/12/31 00:24:00;;;;;;;12.63;7.80;;;;;;;;;;5027333;28;20056;-52
2020/12/31 00:26:26;;;;;;;11.18;7.10;;;;;;;;;;5027437;28;20029;-51
2020/12/31 00:28:52;;;;;;;10.85;5.95;;;;;;;;;;5033458;28;20056;-54
2020/12/31 00:31:18;;;;;;;10.40;6.35;;;;;;;;;;5038964;28;20017;-55
2020/12/31 00:33:43;;;;;;;11.77;6.95;;;;;;;;;;5033585;28;20049;-56
2020/12/31 00:36:09;;;;;;;8.50;6.13;;;;;;;;;;5047475;28;20029;-50
2020/12/31 00:38:35;;;;;;;9.80;6.47;;;;;;;;;;5045615;28;20040;-54
2020/12/31 00:41:01;;;;;;;12.95;6.50;;;;;;;;;;5027108;28;20075;-56
2020/12/31 00:43:28;;;;;;;10.27;6.18;;;;;;;;;;5027583;28;20032;-55
2020/12/31 00:45:54;;;;;;;10.18;6.55;;;;;;;;;;5026864;28;20032;-57
2020/12/31 00:48:20;;;;;;;9.45;6.40;;;;;;;;;;5029020;28;20022;-54
2020/12/31 00:50:46;;;;;;;10.10;6.13;;;;;;;;;;5028882;28;20029;-53
2020/12/31 00:53:12;;;;;;;12.00;6.18;;;;;;;;;;5031121;28;20120;-55
2020/12/31 00:55:38;;;;;;;12.20;6.38;;;;;;;;;;5031449;28;20175;-56
2020/12/31 00:58:04;;;;;;;9.38;6.15;;;;;;;;;;5030843;28;20412;-52
2020/12/31 01:00:30;;;;;;;10.15;6.18;;;;;;;;;;5031539;28;20784;-54
2020/12/31 01:02:57;;;;;;;11.32;6.38;;;;;;;;;;5030722;28;20068;-53
2020/12/31 01:05:23;;;;;;;10.13;6.13;;;;;;;;;;5030315;28;20034;-55
2020/12/31 01:07:51;;;;;;;11.25;6.63;;;;;;;;;;5030097;28;20030;-57
2020/12/31 01:10:17;;;;;;;11.40;6.45;;;;;;;;;;5031207;28;20022;-52
2020/12/31 01:12:43;;;;;;;12.50;7.07;;;;;;;;;;5030942;28;20033;-56
2020/12/31 01:15:09;;;;;;;12.00;6.60;;;;;;;;;;5031084;28;20025;-56
2020/12/31 01:17:35;;;;;;;10.43;6.35;;;;;;;;;;5040480;28;20413;-56
2020/12/31 01:20:01;;;;;;;12.52;7.30;;;;;;;;;;5038160;28;20129;-53
2020/12/31 01:22:27;;;;;;;15.38;7.68;;;;;;;;;;5029954;28;20377;-56
2020/12/31 01:24:53;;;;;;;12.20;6.70;;;;;;;;;;5028002;28;20033;-55
2020/12/31 01:27:19;;;;;;;11.63;6.63;;;;;;;;;;5010882;28;20077;-52
2020/12/31 01:29:45;;;;;;;13.40;7.50;;;;;;;;;;5016011;28;20060;-52
2020/12/31 01:32:11;;;;;;;13.25;7.28;;;;;;;;;;5030160;28;20530;-53
2020/12/31 01:34:37;;;;;;;11.57;6.65;;;;;;;;;;5044190;28;20086;-56
2020/12/31 01:37:03;;;;;;;12.23;7.18;;;;;;;;;;5050600;28;20372;-54
2020/12/31 01:39:29;;;;;;;12.57;6.95;;;;;;;;;;5050334;28;20516;-55
2020/12/31 01:42:05;;;;;;;11.45;6.97;;;;;;;;;;5042538;28;20103;-55
2020/12/31 01:44:31;;;;;;;12.63;7.25;;;;;;;;;;5030102;28;20032;-52
2020/12/31 01:47:01;;;;;;;15.55;8.15;;;;;;;;;;5029833;28;20063;-57
2020/12/31 01:49:30;;;;;;;10.75;6.93;;;;;;;;;;5030552;28;20026;-55
2020/12/31 01:51:57;;;;;;;10.95;6.85;;;;;;;;;;5025618;28;20364;-55
2020/12/31 01:54:23;;;;;;;10.93;7.22;;;;;;;;;;5028944;28;20072;-58
2020/12/31 01:56:49;;;;;;;10.82;6.85;;;;;;;;;;5030310;28;20036;-57
2020/12/31 01:59:16;;;;;;;9.43;6.18;;;;;;;;;;5029086;28;20037;-57
2020/12/31 02:01:42;;;;;;;12.32;7.25;;;;;;;;;;5029618;28;20514;-52
2020/12/31 02:04:08;;;;;;;12.15;7.53;;;;;;;;;;5029792;28;20029;-55
2020/12/31 02:06:35;;;;;;;10.65;6.95;;;;;;;;;;5030230;28;20029;-55
2020/12/31 02:09:01;;;;;;;13.07;7.20;;;;;;;;;;5027747;28;20017;-58
2020/12/31 02:11:27;;;;;;;10.00;6.72;;;;;;;;;;5030011;28;20026;-58
2020/12/31 02:13:53;;;;;;;11.35;6.65;;;;;;;;;;5029653;28;20064;-58
2020/12/31 02:16:21;;;;;;;11.50;6.55;;;;;;;;;;5029265;28;20029;-55
2020/12/31 02:18:51;;;;;;;10.93;6.28;;;;;;;;;;5029307;28;20030;-57
2020/12/31 02:21:18;;;;;;;13.60;7.03;;;;;;;;;;5022586;28;20593;-57
2020/12/31 02:23:44;;;;;;;9.40;6.13;;;;;;;;;;5010122;28;20037;-54
2020/12/31 02:26:10;;;;;;;10.73;6.13;;;;;;;;;;5009599;28;20064;-52
2020/12/31 02:28:36;;;;;;;9.10;5.57;;;;;;;;;;5009761;28;20442;-53
2020/12/31 02:31:02;;;;;;;11.50;6.60;;;;;;;;;;5023953;28;20025;-56
2020/12/31 02:33:28;;;;;;;8.90;6.30;;;;;;;;;;5033456;28;20017;-58
2020/12/31 02:35:54;;;;;;;12.35;7.22;;;;;;;;;;5049110;28;20028;-58
2020/12/31 02:38:20;;;;;;;11.43;6.28;;;;;;;;;;5049162;28;20029;-56
2020/12/31 02:40:46;;;;;;;10.00;6.25;;;;;;;;;;5044071;28;20049;-56
2020/12/31 02:43:12;;;;;;;11.32;6.47;;;;;;;;;;5029347;28;20033;-54
2020/12/31 02:45:38;;;;;;;10.13;6.45;;;;;;;;;;5029073;28;20330;-54
2020/12/31 02:48:04;;;;;;;8.32;5.70;;;;;;;;;;5028658;28;20021;-53
2020/12/31 02:50:30;;;;;;;9.75;6.20;;;;;;;;;;5028807;28;20021;-53
2020/12/31 02:52:56;;;;;;;10.63;6.95;;;;;;;;;;5028486;28;20029;-57
2020/12/31 02:55:21;;;;;;;10.75;6.90;;;;;;;;;;5028923;28;20018;-56
2020/12/31 02:57:47;;;;;;;12.52;6.50;;;;;;;;;;5029365;28;20022;-57
2020/12/31 03:00:13;;;;;;;11.98;7.30;;;;;;;;;;5029019;28;20044;-57
2020/12/31 03:02:39;;;;;;;10.35;6.65;;;;;;;;;;5028338;28;20032;-58
2020/12/31 03:05:05;;;;;;;14.32;7.85;;;;;;;;;;5028369;28;20037;-57
2020/12/31 03:07:31;;;;;;;12.20;7.35;;;;;;;;;;5028874;28;20095;-57
2020/12/31 03:09:57;;;;;;;11.48;7.30;;;;;;;;;;5028762;28;20017;-55
2020/12/31 03:12:23;;;;;;;13.95;7.43;;;;;;;;;;5028395;28;20076;-57
2020/12/31 03:14:49;;;;;;;12.55;7.00;;;;;;;;;;5028967;28;20029;-56
2020/12/31 03:17:15;;;;;;;13.73;7.57;;;;;;;;;;5027628;28;20034;-54
2020/12/31 03:19:41;;;;;;;12.00;7.68;;;;;;;;;;5028643;28;20536;-55
2020/12/31 03:22:07;;;;;;;12.73;7.78;;;;;;;;;;5015119;28;20511;-58
2020/12/31 03:24:33;;;;;;;14.07;8.55;;;;;;;;;;5008656;28;20030;-54
2020/12/31 03:26:59;;;;;;;12.05;7.57;;;;;;;;;;5008422;28;20022;-55
2020/12/31 03:29:24;;;;;;;10.75;7.32;;;;;;;;;;5018990;28;20030;-50
2020/12/31 03:31:50;;;;;;;12.18;7.47;;;;;;;;;;5027666;28;20081;-58
2020/12/31 03:34:16;;;;;;;12.88;7.50;;;;;;;;;;5038831;28;20032;-57
2020/12/31 03:36:42;;;;;;;12.57;7.50;;;;;;;;;;5048281;28;20032;-58
2020/12/31 03:39:08;;;;;;;13.55;8.70;;;;;;;;;;5045271;28;20040;-57
2020/12/31 03:41:34;;;;;;;12.57;8.13;;;;;;;;;;5027883;28;20045;-55
2020/12/31 03:44:00;;;;;;;11.85;7.32;;;;;;;;;;5028448;28;20091;-56
2020/12/31 03:46:26;;;;;;;10.70;7.22;;;;;;;;;;5027506;28;20055;-57
2020/12/31 03:48:52;;;;;;;12.35;7.35;;;;;;;;;;5027858;28;20029;-55
2020/12/31 03:51:18;;;;;;;13.00;7.35;;;;;;;;;;5020545;28;20091;-55
2020/12/31 03:53:44;;;;;;;12.65;7.47;;;;;;;;;;5008519;28;20022;-53
2020/12/31 03:56:10;;;;;;;12.70;7.55;;;;;;;;;;5008306;28;20033;-57
2020/12/31 03:58:36;;;;;;;12.98;7.25;;;;;;;;;;5008259;28;20034;-57
2020/12/31 04:01:02;;;;;;;12.63;8.02;;;;;;;;;;5018337;28;20029;-52
2020/12/31 04:03:27;;;;;;;13.85;7.95;;;;;;;;;;5027372;28;20034;-56
2020/12/31 04:05:53;;;;;;;13.80;8.32;;;;;;;;;;5027455;28;20058;-55
2020/12/31 04:08:19;;;;;;;15.02;8.90;;;;;;;;;;5028082;28;20115;-56
2020/12/31 04:10:45;;;;;;;15.65;8.25;;;;;;;;;;5026971;28;20480;-53
2020/12/31 04:13:11;;;;;;;15.98;9.13;;;;;;;;;;5027699;28;20523;-54
2020/12/31 04:15:37;;;;;;;15.02;8.57;;;;;;;;;;5028000;28;20025;-55
2020/12/31 04:18:03;;;;;;;12.32;7.97;;;;;;;;;;5027141;28;20033;-58
2020/12/31 04:20:29;;;;;;;12.93;8.70;;;;;;;;;;5027164;28;20036;-52
2020/12/31 04:22:55;;;;;;;13.80;8.30;;;;;;;;;;5024480;28;20052;-53
2020/12/31 04:25:21;;;;;;;15.00;9.00;;;;;;;;;;5027692;28;20107;-55
2020/12/31 04:27:47;;;;;;;15.57;9.00;;;;;;;;;;5027651;28;20042;-55
2020/12/31 04:30:13;;;;;;;13.90;8.20;;;;;;;;;;5027454;28;20021;-56
2020/12/31 04:32:39;;;;;;;16.05;8.90;;;;;;;;;;5026714;28;20020;-56
2020/12/31 04:35:04;;;;;;;16.20;9.30;;;;;;;;;;5028785;28;20075;-55
2020/12/31 04:37:30;;;;;;;13.45;8.77;;;;;;;;;;5027406;28;20087;-53
2020/12/31 04:39:56;;;;;;;14.75;8.45;;;;;;;;;;5027212;28;20037;-56
2020/12/31 04:42:22;;;;;;;14.90;9.05;;;;;;;;;;5027199;28;20033;-56
2020/12/31 04:44:50;;;;;;;15.45;9.18;;;;;;;;;;5027325;28;20030;-58
2020/12/31 04:47:20;;;;;;;11.82;7.90;;;;;;;;;;5026010;28;20029;-54
2020/12/31 04:49:49;;;;;;;14.65;8.52;;;;;;;;;;5027473;28;20425;-55
2020/12/31 04:52:15;;;;;;;14.05;7.95;;;;;;;;;;5012820;28;20049;-53
2020/12/31 04:54:43;;;;;;;12.88;8.00;;;;;;;;;;5027215;28;20459;-55
2020/12/31 04:57:09;;;;;;;14.43;7.68;;;;;;;;;;5027167;28;20087;-57
2020/12/31 04:59:35;;;;;;;12.07;7.30;;;;;;;;;;5027125;28;20040;-54
2020/12/31 05:02:01;;;;;;;12.25;7.38;;;;;;;;;;5027158;28;20034;-57
2020/12/31 05:04:27;;;;;;;11.95;7.88;;;;;;;;;;5026760;28;20381;-57
2020/12/31 05:06:54;;;;;;;11.68;7.82;;;;;;;;;;5027569;28;20029;-55
2020/12/31 05:09:21;;;;;;;12.38;7.82;;;;;;;;;;5026980;28;20017;-53
2020/12/31 05:11:48;;;;;;;12.68;7.38;;;;;;;;;;5026979;28;20357;-58
2020/12/31 05:14:14;;;;;;;12.68;8.07;;;;;;;;;;5026880;28;20400;-58
2020/12/31 05:16:40;;;;;;;12.15;7.25;;;;;;;;;;5026860;28;20484;-57
2020/12/31 05:19:20;;;;;;;12.38;7.75;;;;;;;;;;5026662;28;20120;-56
2020/12/31 05:21:46;;;;;;;10.73;7.18;;;;;;;;;;5017063;28;20367;-55
2020/12/31 05:24:13;;;;;;;11.15;7.30;;;;;;;;;;5026716;28;20119;-55
2020/12/31 05:26:39;;;;;;;15.65;7.57;;;;;;;;;;5027098;28;20026;-56
2020/12/31 05:29:05;;;;;;;10.10;6.80;;;;;;;;;;5026937;28;20022;-55
2020/12/31 05:31:51;;;;;;;11.68;7.43;;;;;;;;;;5026526;28;20029;-56
2020/12/31 05:34:30;;;;;;;11.88;7.43;;;;;;;;;;5039326;28;20041;-58
2020/12/31 05:37:12;;;;;;;12.75;7.28;;;;;;;;;;5030650;28;20026;-58
2020/12/31 05:39:38;;;;;;;12.95;7.75;;;;;;;;;;5030384;28;20061;-57
2020/12/31 05:42:11;;;;;;;14.75;8.40;;;;;;;;;;5030136;28;20119;-55
2020/12/31 05:44:57;;;;;;;15.90;7.60;;;;;;;;;;5030577;28;20503;-55
2020/12/31 05:47:23;;;;;;;18.13;8.10;;;;;;;;;;5030108;28;20560;-55
2020/12/31 05:49:49;;;;;;;13.85;7.63;;;;;;;;;;5030204;28;20026;-54
2020/12/31 05:52:32;;;;;;;14.75;8.02;;;;;;;;;;5019254;28;20416;-57
2020/12/31 05:54:58;;;;;;;12.15;7.13;;;;;;;;;;5030472;28;20420;-56
2020/12/31 05:57:34;;;;;;;16.45;8.25;;;;;;;;;;5030329;28;20396;-55
2020/12/31 06:00:01;;;;;;;15.43;8.05;;;;;;;;;;5030670;28;20100;-57
2020/12/31 06:02:27;;;;;;;15.55;7.38;;;;;;;;;;5030016;28;20025;-56
2020/12/31 06:04:56;;;;;;;13.00;7.50;;;;;;;;;;5029672;28;20472;-52
2020/12/31 06:07:29;;;;;;;13.73;8.25;;;;;;;;;;5030112;28;20083;-53
2020/12/31 06:10:06;;;;;;;11.88;7.60;;;;;;;;;;5030567;28;20052;-54
2020/12/31 06:12:49;;;;;;;13.38;7.63;;;;;;;;;;5025733;28;20025;-54
2020/12/31 06:15:33;;;;;;;12.77;7.72;;;;;;;;;;5029613;28;20095;-55
2020/12/31 06:18:03;;;;;;;12.52;8.18;;;;;;;;;;5029375;28;20553;-55
2020/12/31 06:20:29;;;;;;;13.90;7.82;;;;;;;;;;5029440;28;20435;-52
2020/12/31 06:23:00;;;;;;;14.32;8.52;;;;;;;;;;5024057;28;20029;-56
2020/12/31 06:25:34;;;;;;;14.43;8.43;;;;;;;;;;5029747;28;20029;-54
2020/12/31 06:28:04;;;;;;;14.55;8.30;;;;;;;;;;5029943;28;20676;-53
2020/12/31 06:30:30;;;;;;;12.38;7.30;;;;;;;;;;5029585;28;20657;-55
2020/12/31 06:32:57;;;;;;;16.30;8.07;;;;;;;;;;5029356;28;20040;-55
2020/12/31 06:35:26;;;;;;;15.93;7.95;;;;;;;;;;5037807;28;20064;-56
2020/12/31 06:37:57;;;;;;;12.85;7.40;;;;;;;;;;5029473;28;20037;-52
2020/12/31 06:40:26;;;;;;;14.50;7.95;;;;;;;;;;5029184;28;20049;-51
2020/12/31 06:43:11;;;;;;;13.75;8.32;;;;;;;;;;5028994;28;20065;-54
2020/12/31 06:45:38;;;;;;;12.30;7.30;;;;;;;;;;5028492;28;20025;-55
2020/12/31 06:48:24;;;;;;;13.65;7.95;;;;;;;;;;5028689;28;20021;-55
2020/12/31 06:51:06;;;;;;;11.65;6.72;;;;;;;;;;5026351;28;20026;-53
2020/12/31 06:53:38;;;;;;;14.50;7.88;;;;;;;;;;5023834;28;20021;-56
2020/12/31 06:56:05;;;;;;;13.50;7.97;;;;;;;;;;5028772;28;20044;-54
2020/12/31 06:58:31;;;;;;;15.55;8.30;;;;;;;;;;5028833;28;20469;-53
2020/12/31 07:00:57;;;;;;;12.40;6.95;;;;;;;;;;5029277;28;20087;-51
2020/12/31 07:03:45;;;;;;;12.90;7.13;;;;;;;;;;5027407;28;20077;-55
2020/12/31 07:06:23;;;;;;;17.17;8.52;;;;;;;;;;5028580;28;20761;-52
2020/12/31 07:08:49;;;;;;;13.82;8.20;;;;;;;;;;5028920;28;20029;-54
2020/12/31 07:11:14;;;;;;;13.63;8.23;;;;;;;;;;5029048;28;20432;-56
2020/12/31 07:13:41;;;;;;;13.82;7.93;;;;;;;;;;5028773;28;20029;-55
2020/12/31 07:16:07;;;;;;;13.93;8.38;;;;;;;;;;5028541;28;20031;-54
2020/12/31 07:18:33;;;;;;;11.90;8.10;;;;;;;;;;5028371;28;20030;-55
2020/12/31 07:21:02;;;;;;;13.05;8.55;;;;;;;;;;5024216;28;20083;-51
2020/12/31 07:23:38;;;;;;;13.68;8.85;;;;;;;;;;5008911;28;20388;-53
2020/12/31 07:26:04;;;;;;;14.10;8.80;;;;;;;;;;5008956;28;20034;-53
2020/12/31 07:28:30;;;;;;;14.88;8.10;;;;;;;;;;5024789;28;20409;-55
2020/12/31 07:30:56;;;;;;;16.63;9.35;;;;;;;;;;5028222;28;20033;-54
2020/12/31 07:33:35;;;;;;;13.20;8.07;;;;;;;;;;5031357;28;20035;-56
2020/12/31 07:36:11;;;;;;;16.92;8.75;;;;;;;;;;5048171;28;20052;-53
2020/12/31 07:38:37;;;;;;;14.15;8.13;;;;;;;;;;5034439;28;20029;-54
2020/12/31 07:41:03;;;;;;;21.80;12.75;;;;;;;;;;5028400;28;20174;-54
2020/12/31 07:43:30;;;;;;;17.30;10.40;;;;;;;;;;5027776;28;20033;-56
2020/12/31 07:46:03;;;;;;;20.83;10.55;;;;;;;;;;5026608;28;20029;-52
2020/12/31 07:48:30;;;;;;;18.35;10.05;;;;;;;;;;5027428;28;20037;-54
2020/12/31 07:50:59;;;;;;;17.10;10.13;;;;;;;;;;5023573;28;20044;-56
2020/12/31 07:53:29;;;;;;;18.55;10.15;;;;;;;;;;5022545;28;20064;-55
2020/12/31 07:55:56;;;;;;;21.60;12.35;;;;;;;;;;5028013;28;20051;-56
2020/12/31 07:58:23;;;;;;;19.20;11.80;;;;;;;;;;5026761;28;20122;-54
2020/12/31 08:00:57;;;;;;;18.42;10.73;;;;;;;;;;5027849;28;20033;-55
2020/12/31 08:03:23;;;;;;;16.83;10.30;;;;;;;;;;5026723;28;20037;-55
2020/12/31 08:05:54;;;;;;;17.42;10.13;;;;;;;;;;5027426;28;20534;-54
2020/12/31 08:08:20;;;;;;;18.70;10.20;;;;;;;;;;5028095;28;20032;-55
2020/12/31 08:10:46;;;;;;;15.25;9.48;;;;;;;;;;5025994;28;20706;-54
2020/12/31 08:13:16;;;;;;;14.88;9.43;;;;;;;;;;5027075;28;20492;-53
2020/12/31 08:15:41;;;;;;;14.95;8.98;;;;;;;;;;5023853;28;20030;-50
2020/12/31 08:18:08;;;;;;;16.10;9.40;;;;;;;;;;5026961;28;20036;-55
2020/12/31 08:20:37;;;;;;;17.95;10.57;;;;;;;;;;5026622;28;20025;-52
2020/12/31 08:23:04;;;;;;;18.42;10.60;;;;;;;;;;5026312;28;20366;-53
2020/12/31 08:25:37;;;;;;;13.88;9.10;;;;;;;;;;5026455;28;20476;-50
2020/12/31 08:28:04;;;;;;;;;;;;;;;;;;5008299;28;20037;-55
2020/12/31 08:30:31;;;;;;;13.80;8.25;;;;;;;;;;5008248;28;19963;-53
2020/12/31 08:32:58;;;;;;;14.00;8.35;;;;;;;;;;5021743;28;20025;-54
2020/12/31 08:35:25;;;;;;;15.50;8.98;;;;;;;;;;5025058;28;20110;-55
2020/12/31 08:38:06;;;;;;;19.92;9.38;;;;;;;;;;5026541;28;20048;-55
2020/12/31 08:40:32;;;;;;;17.40;9.93;;;;;;;;;;5022172;28;20046;-52
2020/12/31 08:42:59;;;;;;;17.15;10.40;;;;;;;;;;5015244;28;20025;-54
2020/12/31 08:45:34;;;;;;;17.23;10.18;;;;;;;;;;5017934;28;20021;-57
2020/12/31 08:48:10;;;;;;;12.80;8.75;;;;;;;;;;5016377;28;20029;-52
2020/12/31 08:50:36;;;;;;;16.05;9.45;;;;;;;;;;5021998;28;20053;-55
2020/12/31 08:53:02;;;;;;;16.10;8.57;;;;;;;;;;5018012;28;20036;-56
2020/12/31 08:55:28;;;;;;;13.75;8.50;;;;;;;;;;5026864;28;20472;-56
2020/12/31 08:58:10;;;;;;;12.82;7.72;;;;;;;;;;5023059;28;20030;-55
2020/12/31 09:00:36;;;;;;;13.52;7.80;;;;;;;;;;5021077;28;20037;-55
2020/12/31 09:03:03;;;;;;;12.35;8.27;;;;;;;;;;5022132;28;20033;-57
2020/12/31 09:05:29;;;;;;;12.25;7.53;;;;;;;;;;5026492;28;20095;-54
2020/12/31 09:08:02;;;;;;;12.38;7.38;;;;;;;;;;5027367;28;20544;-53
2020/12/31 09:10:31;;;;;;;15.40;8.63;;;;;;;;;;5029878;28;20018;-56
2020/12/31 09:12:57;;;;;;;12.25;8.07;;;;;;;;;;5030846;28;20029;-53
2020/12/31 09:15:23;;;;;;;11.95;8.05;;;;;;;;;;5030424;28;20032;-53
2020/12/31 09:17:49;;;;;;;13.85;8.38;;;;;;;;;;5026418;28;20041;-52
2020/12/31 09:20:25;;;;;;;13.88;8.05;;;;;;;;;;5020175;28;20025;-54
2020/12/31 09:22:52;;;;;;;12.48;7.35;;;;;;;;;;5028980;28;20047;-54
2020/12/31 09:25:18;;;;;;;11.02;6.60;;;;;;;;;;5026096;28;20129;-54
2020/12/31 09:27:45;;;;;;;12.88;7.40;;;;;;;;;;5030297;28;20493;-56
2020/12/31 09:30:12;;;;;;;13.85;7.97;;;;;;;;;;5031096;28;20469;-53
2020/12/31 09:32:38;;;;;;;18.70;10.32;;;;;;;;;;5029773;28;20450;-55
2020/12/31 09:35:07;;;;;;;12.50;7.90;;;;;;;;;;5047451;28;20120;-55
2020/12/31 09:37:49;;;;;;;12.13;7.00;;;;;;;;;;5029921;28;20034;-53
2020/12/31 09:40:15;;;;;;;12.70;7.00;;;;;;;;;;5029135;28;20053;-56
2020/12/31 09:42:42;;;;;;;14.80;6.75;;;;;;;;;;5030549;28;20037;-50
2020/12/31 09:45:08;;;;;;;10.75;7.20;;;;;;;;;;5029117;28;20104;-56
2020/12/31 09:47:34;;;;;;;9.65;6.25;;;;;;;;;;5030095;28;20036;-55
2020/12/31 09:50:00;;;;;;;12.95;7.25;;;;;;;;;;5029754;28;20030;-51
2020/12/31 09:52:26;;;;;;;11.65;6.82;;;;;;;;;;5019176;28;20033;-56
2020/12/31 09:54:52;;;;;;;10.73;6.25;;;;;;;;;;5030786;28;20041;-56
2020/12/31 09:57:18;;;;;;;10.60;6.20;;;;;;;;;;5028532;28;20033;-54
2020/12/31 09:59:44;;;;;;;10.45;6.00;;;;;;;;;;5028080;28;20033;-51
2020/12/31 10:02:10;;;;;;;9.93;6.53;;;;;;;;;;5022042;28;20060;-56
2020/12/31 10:04:36;;;;;;;16.02;7.53;;;;;;;;;;5029255;28;20087;-55
2020/12/31 10:07:02;;;;;;;10.70;6.78;;;;;;;;;;5018529;28;20018;-55
2020/12/31 10:09:28;;;;;;;9.52;6.28;;;;;;;;;;5023684;28;20052;-57
2020/12/31 10:11:55;;;;;;;9.57;7.00;;;;;;;;;;5029684;28;20030;-55
2020/12/31 10:14:21;;;;;;;9.93;6.53;;;;;;;;;;5028695;28;20029;-53
2020/12/31 10:16:47;;;;;;;11.50;6.03;;;;;;;;;;5029407;28;20362;-58
2020/12/31 10:19:13;;;;;;;11.45;7.03;;;;;;;;;;5029576;28;20083;-58
2020/12/31 10:21:40;;;;;;;11.20;6.80;;;;;;;;;;5021741;28;20030;-54
2020/12/31 10:24:06;;;;;;;8.63;5.88;;;;;;;;;;5029722;28;20473;-53
2020/12/31 10:26:32;;;;;;;9.65;6.43;;;;;;;;;;5029718;28;20044;-56
2020/12/31 10:28:58;;;;;;;8.25;5.35;;;;;;;;;;5026697;28;20029;-57
2020/12/31 10:31:24;;;;;;;9.55;6.05;;;;;;;;;;5030075;28;20022;-56
2020/12/31 10:33:51;;;;;;;10.88;6.45;;;;;;;;;;5028492;28;20036;-58
2020/12/31 10:36:17;;;;;;;8.38;5.68;;;;;;;;;;5029118;28;20042;-57
2020/12/31 10:38:43;;;;;;;11.57;5.53;;;;;;;;;;5029386;28;20026;-56
2020/12/31 10:41:12;;;;;;;11.15;6.30;;;;;;;;;;5016160;28;20144;-55
2020/12/31 10:43:38;;;;;;;11.27;6.30;;;;;;;;;;5028209;28;20029;-53
2020/12/31 10:46:04;;;;;;;7.72;5.18;;;;;;;;;;5027156;28;20075;-57
2020/12/31 10:48:30;;;;;;;8.02;4.82;;;;;;;;;;5026146;28;20095;-57
2020/12/31 10:50:59;;;;;;;7.25;4.80;;;;;;;;;;5022729;28;20590;-56
2020/12/31 10:53:25;;;;;;;10.75;4.80;;;;;;;;;;5022503;28;20099;-57
2020/12/31 10:55:51;;;;;;;7.75;5.30;;;;;;;;;;5029504;28;20029;-58
2020/12/31 10:58:17;;;;;;;6.43;4.30;;;;;;;;;;5028924;28;20383;-56
2020/12/31 11:00:43;;;;;;;6.45;4.60;;;;;;;;;;5029219;28;20350;-57
2020/12/31 11:03:09;;;;;;;7.68;4.72;;;;;;;;;;5027616;28;20021;-55
2020/12/31 11:05:35;;;;;;;7.95;4.70;;;;;;;;;;5027661;28;20140;-56
2020/12/31 11:08:01;;;;;;;8.15;4.93;;;;;;;;;;5028186;28;20034;-56
2020/12/31 11:10:27;;;;;;;8.82;4.22;;;;;;;;;;5026148;28;20450;-57
2020/12/31 11:12:53;;;;;;;7.45;4.43;;;;;;;;;;5028889;28;20713;-58
2020/12/31 11:15:19;;;;;;;6.88;4.60;;;;;;;;;;5028132;28;20018;-55
2020/12/31 11:17:44;;;;;;;7.63;4.70;;;;;;;;;;5028485;28;20036;-56
2020/12/31 11:20:10;;;;;;;7.47;3.95;;;;;;;;;;5022653;28;20062;-56
2020/12/31 11:22:37;;;;;;;6.65;4.05;;;;;;;;;;5028024;28;20033;-57
2020/12/31 11:25:03;;;;;;;7.65;4.38;;;;;;;;;;5027264;28;20889;-58
2020/12/31 11:27:29;;;;;;;5.65;3.80;;;;;;;;;;5028157;28;20495;-54
2020/12/31 11:29:55;;;;;;;5.80;4.00;;;;;;;;;;5025188;28;20033;-57
2020/12/31 11:32:21;;;;;;;5.68;4.15;;;;;;;;;;5021871;28;20026;-58
2020/12/31 11:34:47;;;;;;;5.55;4.20;;;;;;;;;;5036647;28;20040;-55
2020/12/31 11:37:13;;;;;;;6.13;3.78;;;;;;;;;;5027819;28;20064;-55
2020/12/31 11:39:39;;;;;;;6.95;4.32;;;;;;;;;;5028378;28;20088;-53
2020/12/31 11:42:05;;;;;;;6.13;3.90;;;;;;;;;;5026881;28;20099;-56
2020/12/31 11:44:31;;;;;;;5.85;3.85;;;;;;;;;;5028087;28;20527;-57
2020/12/31 11:47:00;;;;;;;7.75;3.95;;;;;;;;;;5022431;28;20026;-51
2020/12/31 11:49:26;;;;;;;51.92;6.97;;;;;;;;;;5020299;28;20017;-50
2020/12/31 11:51:58;;;;;;;21.30;11.55;;;;;;;;;;5024407;28;20029;-47
2020/12/31 11:54:25;;;;;;;7.88;4.15;;;;;;;;;;5026923;28;20132;-51
2020/12/31 11:56:51;;;;;;;5.93;3.78;;;;;;;;;;5020259;28;20021;-51
2020/12/31 11:59:17;;;;;;;7.75;4.70;;;;;;;;;;5025845;28;20026;-53
2020/12/31 12:01:50;;;;;;;5.95;3.70;;;;;;;;;;5027568;28;20029;-50
2020/12/31 12:04:16;;;;;;;5.97;3.70;;;;;;;;;;5022949;28;20025;-48
2020/12/31 12:06:47;;;;;;;5.15;3.67;;;;;;;;;;5026466;28;20041;-51
2020/12/31 12:09:13;;;;;;;5.43;3.60;;;;;;;;;;5027578;28;20036;-49
2020/12/31 12:11:39;;;;;;;5.25;3.70;;;;;;;;;;5027914;28;20033;-47
2020/12/31 12:14:05;;;;;;;5.70;3.90;;;;;;;;;;5018170;28;20026;-47
2020/12/31 12:16:31;;;;;;;7.07;4.05;;;;;;;;;;5025379;28;20033;-46
2020/12/31 12:18:57;;;;;;;6.68;4.35;;;;;;;;;;5028236;28;20037;-48
2020/12/31 12:21:22;;;;;;;6.40;3.88;;;;;;;;;;5027473;28;20029;-48
2020/12/31 12:23:48;;;;;;;5.15;3.55;;;;;;;;;;5027109;28;20147;-49
2020/12/31 12:26:14;;;;;;;7.93;4.50;;;;;;;;;;5026796;28;20025;-48
2020/12/31 12:28:40;;;;;;;6.72;4.07;;;;;;;;;;5026298;28;20527;-50
2020/12/31 12:31:06;;;;;;;6.20;3.53;;;;;;;;;;5008463;28;20029;-47
2020/12/31 12:33:32;;;;;;;6.25;3.50;;;;;;;;;;5012681;28;20024;-50
2020/12/31 12:35:58;;;;;;;6.82;4.90;;;;;;;;;;5015841;28;20045;-50
2020/12/31 12:38:24;;;;;;;5.82;4.10;;;;;;;;;;5027081;28;20033;-47
2020/12/31 12:40:50;;;;;;;5.10;3.78;;;;;;;;;;5027140;28;20049;-47
2020/12/31 12:43:16;;;;;;;6.35;4.20;;;;;;;;;;5026396;28;20034;-47
2020/12/31 12:45:42;;;;;;;7.43;4.03;;;;;;;;;;5026609;28;20030;-47
2020/12/31 12:48:08;;;;;;;6.38;4.30;;;;;;;;;;5030164;28;20028;-47
2020/12/31 12:50:34;;;;;;;8.00;4.95;;;;;;;;;;5027168;28;20030;-50
2020/12/31 12:53:00;;;;;;;6.55;4.25;;;;;;;;;;5015841;28;20060;-49
2020/12/31 12:55:26;;;;;;;7.28;4.43;;;;;;;;;;5028071;28;20365;-51
2020/12/31 12:57:52;;;;;;;7.60;4.40;;;;;;;;;;5030584;28;20493;-49
2020/12/31 13:00:20;;;;;;;13.73;11.52;;;;;;;;;;5021655;28;20030;-51
2020/12/31 13:02:46;;;;;;;6.35;4.00;;;;;;;;;;5016467;28;20033;-49
2020/12/31 13:05:12;;;;;;;7.05;4.18;;;;;;;;;;5027758;28;20369;-49
2020/12/31 13:07:38;;;;;;;5.57;4.28;;;;;;;;;;5027911;28;20472;-46
2020/12/31 13:10:04;;;;;;;6.43;4.10;;;;;;;;;;5028903;28;20401;-47
2020/12/31 13:12:31;;;;;;;5.95;4.05;;;;;;;;;;5028368;28;20370;-47
2020/12/31 13:14:57;;;;;;;7.95;5.00;;;;;;;;;;5017500;28;20040;-52
2020/12/31 13:17:23;;;;;;;13.18;7.53;;;;;;;;;;5029332;28;20022;-52
2020/12/31 13:19:49;;;;;;;10.27;5.63;;;;;;;;;;5026994;28;20025;-50
2020/12/31 13:22:15;;;;;;;8.68;5.15;;;;;;;;;;5029548;28;20025;-53
2020/12/31 13:24:41;;;;;;;8.50;5.40;;;;;;;;;;5028720;28;20551;-48
2020/12/31 13:27:07;;;;;;;7.15;4.75;;;;;;;;;;5020089;28;20033;-50
2020/12/31 13:29:33;;;;;;;7.72;4.60;;;;;;;;;;5027957;28;20032;-49
2020/12/31 13:31:59;;;;;;;6.53;4.13;;;;;;;;;;5031397;28;20022;-51
2020/12/31 13:34:25;;;;;;;6.50;4.05;;;;;;;;;;5026025;28;20022;-49
2020/12/31 13:36:51;;;;;;;6.32;3.78;;;;;;;;;;5014648;28;20149;-46
2020/12/31 13:39:17;;;;;;;7.20;4.55;;;;;;;;;;5029562;28;20033;-49
2020/12/31 13:41:43;;;;;;;5.72;4.28;;;;;;;;;;5030254;28;20041;-47
2020/12/31 13:44:09;;;;;;;7.38;4.43;;;;;;;;;;5030013;28;20671;-46
2020/12/31 13:46:35;;;;;;;5.50;3.95;;;;;;;;;;5030259;28;20025;-48
2020/12/31 13:49:01;;;;;;;7.65;4.53;;;;;;;;;;5023174;28;20028;-50
2020/12/31 13:51:27;;;;;;;6.65;4.40;;;;;;;;;;5028718;28;20039;-46
2020/12/31 13:53:53;;;;;;;8.38;4.72;;;;;;;;;;5028149;28;20120;-46
2020/12/31 13:56:26;;;;;;;14.88;6.50;;;;;;;;;;5024908;28;20028;-46
2020/12/31 13:58:52;;;;;;;8.00;5.30;;;;;;;;;;5028946;28;20034;-48
2020/12/31 14:01:19;;;;;;;8.57;4.95;;;;;;;;;;5027609;28;20477;-47
2020/12/31 14:03:45;;;;;;;8.38;4.70;;;;;;;;;;5028610;28;20030;-49
2020/12/31 14:06:12;;;;;;;8.77;6.40;;;;;;;;;;5025614;28;20072;-46
2020/12/31 14:08:37;;;;;;;9.82;6.03;;;;;;;;;;5027510;28;20029;-48
2020/12/31 14:11:04;;;;;;;11.18;6.95;;;;;;;;;;5012085;28;20041;-51
2020/12/31 14:13:30;;;;;;;18.05;10.70;;;;;;;;;;5025806;28;20064;-46
2020/12/31 14:15:56;;;;;;;10.50;5.95;;;;;;;;;;5029647;28;20025;-47
2020/12/31 14:18:22;;;;;;;9.05;5.65;;;;;;;;;;5028965;28;20103;-47
2020/12/31 14:20:47;;;;;;;8.05;5.15;;;;;;;;;;5029206;28;20456;-49
2020/12/31 14:23:13;;;;;;;8.93;5.60;;;;;;;;;;5030065;28;20083;-48
2020/12/31 14:25:42;;;;;;;9.88;4.70;;;;;;;;;;5022142;28;20035;-49
2020/12/31 14:28:09;;;;;;;8.98;4.65;;;;;;;;;;5028929;28;20048;-46
2020/12/31 14:30:35;;;;;;;6.55;4.15;;;;;;;;;;5029011;28;20048;-48
2020/12/31 14:33:01;;;;;;;34.10;15.65;;;;;;;;;;5029452;28;20224;-48
2020/12/31 14:35:27;;;;;;;9.52;5.65;;;;;;;;;;5038280;28;20052;-46